Tattenhall, United Kingdom
Current Conditions -  °F | °C
As of 3:50 PM on Saturday 25 Oct 2014 (Local Time) from EGNR Reporting Station
Rain Showers Rain Showers  
Wind Chill: 57°   Ceiling: Unl
Heat Index: 57°   Visibility: 6mi
Dew Point: 48°   Wind: 13mph
Humidity: 72%   Direction: 240°WSW
Pressure: 29.94"   Gusts: NA
Location:  53.12°N, 2.77°W
Report Text: EGNR 251450Z 24011KT 9000 VCSH SCT020 SCT027 14/09 Q1014
Loading
Personal Weather Stations






























Interactive Weather Map New forecast layout! Learn more

10-Day Weather Forecast

Advertisements
Track Severe Weather on mobile